createdAt,value
2023-03-13T00:02:04.157Z,100092.91
2023-03-13T00:04:33.160Z,100089.44
2023-03-13T00:07:00.722Z,100080.00
2023-03-13T00:09:28.253Z,100073.94
2023-03-13T00:11:55.777Z,100070.59
2023-03-13T00:14:23.262Z,100062.94
2023-03-13T00:16:50.853Z,100054.47
2023-03-13T00:19:18.400Z,100049.44
2023-03-13T00:21:47.315Z,100053.00
2023-03-13T00:24:14.946Z,100043.59
2023-03-13T00:26:42.379Z,100034.03
2023-03-13T00:29:09.824Z,100028.06
2023-03-13T00:31:37.425Z,100027.22
2023-03-13T00:34:05.107Z,100020.41
2023-03-13T00:36:33.889Z,100014.47
2023-03-13T00:39:03.106Z,100007.53
2023-03-13T00:41:31.126Z,100004.06
2023-03-13T00:43:58.733Z,99992.72
2023-03-13T00:46:27.176Z,99988.41
2023-03-13T00:48:54.959Z,99978.75
2023-03-13T00:51:23.784Z,99980.66
2023-03-13T00:53:51.346Z,99972.91
2023-03-13T00:56:20.529Z,99968.63
2023-03-13T00:58:48.648Z,99966.00
2023-03-13T01:01:16.777Z,99959.06
2023-03-13T01:03:44.924Z,99959.16
2023-03-13T01:06:13.450Z,99945.94
2023-03-13T01:08:40.988Z,99942.47
2023-03-13T01:11:09.603Z,99936.41
2023-03-13T01:13:38.656Z,99931.97
2023-03-13T01:16:06.905Z,99919.78
2023-03-13T01:18:34.610Z,99921.47
2023-03-13T01:21:02.214Z,99910.13
2023-03-13T01:23:29.812Z,99904.00
2023-03-13T01:25:57.552Z,99889.13
2023-03-13T01:28:25.291Z,99883.13
2023-03-13T01:30:54.381Z,99876.91
2023-03-13T01:33:21.923Z,99859.50
2023-03-13T01:35:49.471Z,99862.13
2023-03-13T01:38:17.006Z,99857.84
2023-03-13T01:40:45.707Z,99849.00
2023-03-13T01:43:17.582Z,99838.47
2023-03-13T01:46:02.055Z,99834.91
2023-03-13T01:48:31.893Z,99819.97
2023-03-13T01:51:00.015Z,99809.59
2023-03-13T01:53:27.516Z,99800.75
2023-03-13T01:55:55.006Z,99789.31
2023-03-13T01:58:22.430Z,99784.06
2023-03-13T02:00:49.915Z,99794.56
2023-03-13T02:03:19.435Z,99768.31
2023-03-13T02:05:46.881Z,99778.81
2023-03-13T02:08:15.772Z,99748.97
2023-03-13T02:10:44.891Z,99766.38
2023-03-13T02:13:15.204Z,99747.88
2023-03-13T02:15:42.757Z,99753.94
2023-03-13T02:18:10.316Z,99739.03
2023-03-13T02:20:39.930Z,99728.38
2023-03-13T02:23:08.888Z,99726.59
2023-03-13T02:25:40.111Z,99716.91
2023-03-13T02:28:08.590Z,99715.84
2023-03-13T02:30:36.143Z,99702.72
2023-03-13T02:33:03.822Z,99695.41
2023-03-13T02:35:31.421Z,99699.00
2023-03-13T02:37:59.205Z,99687.38
2023-03-13T02:40:27.458Z,99675.81
2023-03-13T02:42:56.297Z,99674.84
2023-03-13T02:45:23.952Z,99665.03
2023-03-13T02:47:51.494Z,99656.91
2023-03-13T02:50:19.054Z,99652.34
2023-03-13T02:52:46.948Z,99638.69
2023-03-13T02:55:17.763Z,99625.44
2023-03-13T02:57:45.228Z,99631.50
2023-03-13T03:00:17.040Z,99626.94
2023-03-13T03:02:44.729Z,99608.34
2023-03-13T03:05:12.523Z,99602.13
2023-03-13T03:07:39.985Z,99589.69
2023-03-13T03:10:08.078Z,99582.34
2023-03-13T03:12:35.608Z,99585.84
2023-03-13T03:15:04.773Z,99579.59
2023-03-13T03:17:33.745Z,99571.44
2023-03-13T03:20:01.237Z,99579.06
2023-03-13T03:22:28.759Z,99565.66
2023-03-13T03:24:56.353Z,99574.25
2023-03-13T03:27:23.891Z,99569.66
2023-03-13T03:29:51.403Z,99570.38
2023-03-13T03:32:18.984Z,99562.22
2023-03-13T03:34:47.916Z,99567.34
2023-03-13T03:37:15.359Z,99566.25
2023-03-13T03:39:42.916Z,99568.59
2023-03-13T03:42:10.566Z,99557.81
2023-03-13T03:44:38.096Z,99554.09
2023-03-13T03:47:05.856Z,99552.72
2023-03-13T03:49:33.390Z,99556.88
2023-03-13T03:52:02.207Z,99562.97
2023-03-13T03:54:29.771Z,99552.16
2023-03-13T03:56:57.282Z,99548.31
2023-03-13T03:59:24.792Z,99547.06
2023-03-13T04:01:52.393Z,99547.78
2023-03-13T04:04:19.939Z,99536.97
2023-03-13T04:06:47.425Z,99532.38
2023-03-13T04:09:16.296Z,99527.84
2023-03-13T04:11:43.724Z,99541.69
2023-03-13T04:14:11.178Z,99542.38
2023-03-13T04:16:38.764Z,99523.81
2023-03-13T04:19:07.482Z,99534.91
2023-03-13T04:21:34.970Z,99527.69
2023-03-13T04:24:02.526Z,99530.03
2023-03-13T04:26:31.355Z,99519.78
2023-03-13T04:28:58.832Z,99524.22
2023-03-13T04:31:26.335Z,99526.44
2023-03-13T04:33:53.776Z,99520.06
2023-03-13T04:36:21.421Z,99502.06
2023-03-13T04:38:48.997Z,99502.88
2023-03-13T04:41:16.512Z,99498.47
2023-03-13T04:43:45.392Z,99493.88
2023-03-13T04:46:12.986Z,99495.38
2023-03-13T04:48:40.500Z,99489.03
2023-03-13T04:51:08.005Z,99487.38
2023-03-13T04:53:35.565Z,99488.06
2023-03-13T04:56:03.021Z,99487.91
2023-03-13T04:58:30.553Z,99479.84
2023-03-13T05:00:59.500Z,99482.22
2023-03-13T05:03:27.136Z,99476.81
2023-03-13T05:05:54.562Z,99478.31
2023-03-13T05:08:22.084Z,99478.16
2023-03-13T05:10:49.543Z,99484.81
2023-03-13T05:13:16.979Z,99467.91
2023-03-13T05:15:44.621Z,99468.63
2023-03-13T05:18:13.857Z,99456.81
2023-03-13T05:20:41.405Z,99450.56
2023-03-13T05:23:08.878Z,99452.09
2023-03-13T05:25:36.297Z,99447.34
2023-03-13T05:28:03.945Z,99445.41
2023-03-13T05:30:31.426Z,99441.66
2023-03-13T05:32:59.013Z,99443.16
2023-03-13T05:35:27.965Z,99443.84
2023-03-13T05:37:55.501Z,99438.44
2023-03-13T05:40:23.090Z,99424.16
2023-03-13T05:42:50.629Z,99425.81
2023-03-13T05:45:18.202Z,99425.66
2023-03-13T05:47:45.714Z,99423.69
2023-03-13T05:50:13.175Z,99435.06
2023-03-13T05:52:42.104Z,99441.19
2023-03-13T05:55:10.012Z,99438.25
2023-03-13T05:57:37.546Z,99425.59
2023-03-13T06:00:05.368Z,99438.50
2023-03-13T06:02:32.913Z,99436.22
2023-03-13T06:05:00.554Z,99428.06
2023-03-13T06:07:28.055Z,99436.63
2023-03-13T06:09:56.978Z,99434.66
2023-03-13T06:12:24.481Z,99428.44
2023-03-13T06:14:51.989Z,99438.00
2023-03-13T06:17:19.471Z,99444.94
2023-03-13T06:19:47.264Z,99443.00
2023-03-13T06:22:14.750Z,99429.69
2023-03-13T06:24:44.626Z,99439.13
2023-03-13T06:27:13.509Z,99446.03
2023-03-13T06:29:41.099Z,99439.78
2023-03-13T06:32:08.899Z,99435.34
2023-03-13T06:34:36.516Z,99436.16
2023-03-13T06:37:04.450Z,99436.00
2023-03-13T06:39:31.947Z,99434.22
2023-03-13T06:41:59.416Z,99434.91
2023-03-13T06:44:28.381Z,99436.56
2023-03-13T06:46:55.942Z,99438.38
2023-03-13T06:49:23.498Z,99438.22
2023-03-13T06:51:51.025Z,99427.38
2023-03-13T06:54:18.473Z,99423.63
2023-03-13T06:56:45.951Z,99419.84
2023-03-13T06:59:13.438Z,99414.41
2023-03-13T07:01:42.342Z,99409.00
2023-03-13T07:04:10.967Z,99398.16
2023-03-13T07:06:38.473Z,99402.16
2023-03-13T07:09:06.198Z,99395.88
2023-03-13T07:11:33.707Z,99395.59
2023-03-13T07:14:15.269Z,99395.59
2023-03-13T07:16:45.794Z,99394.47
2023-03-13T07:19:13.447Z,99392.50
2023-03-13T07:21:40.907Z,99391.50
2023-03-13T07:24:08.717Z,99397.59
2023-03-13T07:26:36.412Z,99394.84
2023-03-13T07:29:04.020Z,99397.16
2023-03-13T07:31:34.155Z,99391.72
2023-03-13T07:34:03.134Z,99392.44
2023-03-13T07:36:30.957Z,99399.38
2023-03-13T07:38:58.723Z,99397.41
2023-03-13T07:41:26.293Z,99392.94
2023-03-13T07:43:53.826Z,99389.31
2023-03-13T07:46:21.689Z,99396.09
2023-03-13T07:48:49.443Z,99396.47
2023-03-13T07:51:20.554Z,99386.47
2023-03-13T07:53:51.258Z,99383.66
2023-03-13T07:56:19.311Z,99393.91
2023-03-13T07:58:46.965Z,99385.97
2023-03-13T08:01:16.065Z,99390.97
2023-03-13T08:03:44.219Z,99390.66
2023-03-13T08:06:12.229Z,99379.94
2023-03-13T08:08:41.429Z,99378.81
2023-03-13T08:11:10.337Z,99374.88
2023-03-13T08:13:37.863Z,99371.91
2023-03-13T08:16:06.510Z,99384.81
2023-03-13T08:18:35.771Z,99381.84
2023-03-13T08:21:04.323Z,99385.84
2023-03-13T08:23:31.830Z,99390.00
2023-03-13T08:26:04.237Z,99388.84
2023-03-13T08:28:31.752Z,99381.63
2023-03-13T08:30:59.284Z,99385.75
2023-03-13T08:33:26.851Z,99391.84
2023-03-13T08:35:54.505Z,99383.63
2023-03-13T08:38:22.064Z,99392.22
2023-03-13T08:40:49.551Z,99389.59
2023-03-13T08:43:18.381Z,99394.88
2023-03-13T08:45:45.981Z,99388.44
2023-03-13T08:48:13.574Z,99387.00
2023-03-13T08:50:41.038Z,99386.66
2023-03-13T08:53:08.499Z,99387.34
2023-03-13T08:55:36.304Z,99387.19
2023-03-13T08:58:03.853Z,99381.59
2023-03-13T09:00:33.150Z,99384.88
2023-03-13T09:03:00.583Z,99374.84
2023-03-13T09:05:28.045Z,99374.84
2023-03-13T09:07:55.522Z,99359.38
2023-03-13T09:10:23.937Z,99367.47
2023-03-13T09:12:51.538Z,99361.53
2023-03-13T09:15:19.008Z,99364.03
2023-03-13T09:17:47.947Z,99354.19
2023-03-13T09:20:15.463Z,99365.56
2023-03-13T09:22:43.041Z,99360.13
2023-03-13T09:25:10.761Z,99374.00
2023-03-13T09:27:38.246Z,99373.69
2023-03-13T09:30:06.213Z,99365.59
2023-03-13T09:32:33.727Z,99365.25
2023-03-13T09:35:02.622Z,99357.84
2023-03-13T09:37:30.170Z,99349.59
2023-03-13T09:39:59.114Z,99359.84
2023-03-13T09:42:29.481Z,99354.72
2023-03-13T09:44:57.471Z,99339.88
2023-03-13T09:47:25.482Z,99344.34
2023-03-13T09:49:54.405Z,99349.34
2023-03-13T09:52:25.407Z,99327.50
2023-03-13T09:54:53.538Z,99334.16
2023-03-13T09:57:23.087Z,99336.31
2023-03-13T09:59:52.643Z,99336.13
2023-03-13T10:02:26.237Z,99331.66
2023-03-13T10:04:54.916Z,99326.56
2023-03-13T10:07:23.873Z,99324.91
2023-03-13T10:09:51.955Z,99299.59
2023-03-13T10:12:20.857Z,99321.56
2023-03-13T10:14:51.035Z,99311.50
2023-03-13T10:17:21.669Z,99310.84
2023-03-13T10:19:50.192Z,99297.28
2023-03-13T10:22:18.629Z,99322.56
2023-03-13T10:24:48.821Z,99310.16
2023-03-13T10:27:16.708Z,99302.91
2023-03-13T10:29:44.236Z,99301.09
2023-03-13T10:32:12.734Z,99307.03
2023-03-13T10:34:46.655Z,99292.81
2023-03-13T10:37:15.079Z,99304.03
2023-03-13T10:39:42.641Z,99297.44
2023-03-13T10:42:11.980Z,99297.09
2023-03-13T10:44:39.484Z,99305.38
2023-03-13T10:47:07.173Z,99286.66
2023-03-13T10:49:34.712Z,99280.19
2023-03-13T10:52:03.099Z,99284.34
2023-03-13T10:54:31.142Z,99269.94
2023-03-13T10:57:09.378Z,99274.06
2023-03-13T10:59:41.233Z,99279.84
2023-03-13T11:02:18.751Z,99269.91
2023-03-13T11:04:53.366Z,99255.19
2023-03-13T11:07:27.705Z,99250.03
2023-03-13T11:10:02.046Z,99241.09
2023-03-13T11:12:29.931Z,99241.72
2023-03-13T11:14:59.468Z,99235.56
2023-03-13T11:17:30.082Z,99230.06
2023-03-13T11:19:59.646Z,99233.31
2023-03-13T11:22:31.533Z,99229.78
2023-03-13T11:25:10.933Z,99235.53
2023-03-13T11:27:40.130Z,99233.56
2023-03-13T11:30:12.922Z,99229.72
2023-03-13T11:32:42.773Z,99230.69
2023-03-13T11:35:16.364Z,99222.03
2023-03-13T11:37:43.901Z,99234.75
2023-03-13T11:40:13.868Z,99223.25
2023-03-13T11:42:47.574Z,99226.84
2023-03-13T11:45:23.061Z,99213.53
2023-03-13T11:47:53.205Z,99222.59
2023-03-13T11:50:24.616Z,99203.31
2023-03-13T11:52:59.710Z,99197.94
2023-03-13T11:55:31.800Z,99188.59
2023-03-13T11:58:02.978Z,99185.28
2023-03-13T12:00:32.686Z,99182.28
2023-03-13T12:03:04.824Z,99172.75
2023-03-13T12:05:33.015Z,99163.97
2023-03-13T12:08:02.290Z,99170.66
2023-03-13T12:10:30.763Z,99149.88
2023-03-13T12:13:00.467Z,99151.31
2023-03-13T12:15:28.872Z,99148.22
2023-03-13T12:17:59.909Z,99143.84
2023-03-13T12:20:28.338Z,99137.41
2023-03-13T12:23:08.078Z,99150.59
2023-03-13T12:25:38.144Z,99145.47
2023-03-13T12:28:11.349Z,99142.69
2023-03-13T12:30:39.603Z,99140.31
2023-03-13T12:33:14.781Z,99142.38
2023-03-13T12:35:42.387Z,99151.97
2023-03-13T12:38:11.665Z,99125.53
2023-03-13T12:40:39.602Z,99123.97
2023-03-13T12:43:07.652Z,99135.06
2023-03-13T12:45:35.128Z,99133.03
2023-03-13T12:48:15.386Z,99101.78
2023-03-13T12:50:45.289Z,99107.53
2023-03-13T12:53:27.675Z,99096.97
2023-03-13T12:55:57.457Z,99097.06
2023-03-13T12:58:30.292Z,99098.38
2023-03-13T13:00:58.142Z,99100.69
2023-03-13T13:03:29.048Z,99097.50
2023-03-13T13:06:09.024Z,99088.09
2023-03-13T13:08:40.130Z,99086.47
2023-03-13T13:11:25.577Z,99084.00
2023-03-13T13:13:53.081Z,99080.34
2023-03-13T13:16:21.217Z,99059.88
2023-03-13T13:18:50.200Z,99076.28
2023-03-13T13:21:22.310Z,99081.66
2023-03-13T13:23:53.850Z,99069.81
2023-03-13T13:26:48.770Z,99060.41
2023-03-13T13:29:37.000Z,99059.38
2023-03-13T13:32:06.676Z,99064.28
2023-03-13T13:34:49.344Z,99068.00
2023-03-13T13:37:28.896Z,99056.75
2023-03-13T13:39:57.755Z,99055.56
2023-03-13T13:42:55.427Z,99059.41
2023-03-13T13:45:27.619Z,99072.31
2023-03-13T13:48:10.106Z,99058.38
2023-03-13T13:50:37.599Z,99046.47
2023-03-13T13:53:19.948Z,99060.97
2023-03-13T13:55:48.824Z,99054.16
2023-03-13T13:58:18.970Z,99051.66
2023-03-13T14:00:46.901Z,99055.66
2023-03-13T14:03:21.660Z,99041.72
2023-03-13T14:05:49.319Z,99051.47
2023-03-13T14:08:18.122Z,99040.41
2023-03-13T14:10:46.777Z,99042.44
2023-03-13T14:13:17.152Z,99042.88
2023-03-13T14:15:45.513Z,99042.88
2023-03-13T14:18:14.316Z,99055.09
2023-03-13T14:20:42.197Z,99049.34
2023-03-13T14:23:10.075Z,99049.53
2023-03-13T14:25:45.615Z,99035.19
2023-03-13T14:28:18.594Z,99036.16
2023-03-13T14:30:46.111Z,99022.66
2023-03-13T14:33:13.647Z,99019.84
2023-03-13T14:35:41.199Z,99013.19
2023-03-13T14:38:08.982Z,99014.50
2023-03-13T14:40:38.492Z,99026.03
2023-03-13T14:43:06.107Z,99022.00
2023-03-13T14:45:35.440Z,99007.47
2023-03-13T14:48:03.535Z,99019.91
2023-03-13T14:50:31.095Z,99020.91
2023-03-13T14:52:59.481Z,99023.97
2023-03-13T14:55:28.333Z,99013.97
2023-03-13T14:57:56.315Z,99007.06
2023-03-13T15:00:30.412Z,99007.91
2023-03-13T15:03:12.754Z,98987.03
2023-03-13T15:05:41.668Z,99008.13
2023-03-13T15:08:11.838Z,98985.44
2023-03-13T15:10:40.856Z,98979.72
2023-03-13T15:13:15.510Z,98983.56
2023-03-13T15:15:43.111Z,98983.72
2023-03-13T15:18:14.145Z,98987.81
2023-03-13T15:20:43.062Z,98980.63
2023-03-13T15:23:11.172Z,98981.59
2023-03-13T15:25:40.492Z,98983.66
2023-03-13T15:28:10.384Z,98985.84
2023-03-13T15:30:37.914Z,98980.28
2023-03-13T15:33:05.569Z,98970.06
2023-03-13T15:35:33.896Z,98974.09
2023-03-13T15:38:03.020Z,98964.50
2023-03-13T15:40:31.759Z,98970.84
2023-03-13T15:42:59.385Z,98958.56
2023-03-13T15:45:26.866Z,98952.41
2023-03-13T15:47:54.376Z,98955.66
2023-03-13T15:50:25.522Z,98952.78
2023-03-13T15:52:53.039Z,98952.13
2023-03-13T15:55:21.953Z,98948.03
2023-03-13T15:57:50.428Z,98941.47
2023-03-13T16:00:20.000Z,98935.72
2023-03-13T16:02:47.716Z,98937.72
2023-03-13T16:05:15.270Z,98932.81
2023-03-13T16:07:42.782Z,98934.00
2023-03-13T16:10:13.953Z,98932.94
2023-03-13T16:12:42.852Z,98928.00
2023-03-13T16:15:10.927Z,98937.41
2023-03-13T16:17:38.404Z,98922.66
2023-03-13T16:20:10.518Z,98916.91
2023-03-13T16:22:38.023Z,98917.94
2023-03-13T16:25:07.084Z,98913.19
2023-03-13T16:27:34.789Z,98900.31
2023-03-13T16:30:04.258Z,98894.72
2023-03-13T16:32:31.915Z,98892.63
2023-03-13T16:35:00.164Z,98901.19
2023-03-13T16:37:27.625Z,98893.44
2023-03-13T16:39:55.148Z,98881.94
2023-03-13T16:42:22.936Z,98871.69
2023-03-13T16:44:50.429Z,98866.75
2023-03-13T16:47:20.913Z,98867.53
2023-03-13T16:49:48.574Z,98862.63
2023-03-13T16:52:16.281Z,98869.50
2023-03-13T16:54:44.034Z,98864.13
2023-03-13T16:57:12.016Z,98875.13
2023-03-13T16:59:39.489Z,98873.03
2023-03-13T17:02:07.522Z,98874.59
2023-03-13T17:04:36.488Z,98867.25
2023-03-13T17:07:04.056Z,98864.31
2023-03-13T17:09:31.497Z,98868.72
2023-03-13T17:11:58.979Z,98876.59
2023-03-13T17:14:26.445Z,98878.00
2023-03-13T17:16:53.905Z,98882.84
2023-03-13T17:19:21.374Z,98883.56
2023-03-13T17:21:50.276Z,98874.38
2023-03-13T17:24:17.803Z,98890.81
2023-03-13T17:26:45.299Z,98880.97
2023-03-13T17:29:13.861Z,98888.66
2023-03-13T17:31:41.632Z,98891.03
2023-03-13T17:34:09.268Z,98890.94
2023-03-13T17:36:36.986Z,98901.47
2023-03-13T17:39:08.719Z,98915.09
2023-03-13T17:41:36.561Z,98917.84
2023-03-13T17:44:04.677Z,98905.78
2023-03-13T17:46:33.999Z,98903.69
2023-03-13T17:49:01.769Z,98895.44
2023-03-13T17:51:29.839Z,98904.78
2023-03-13T17:53:57.981Z,98907.97
2023-03-13T17:56:27.528Z,98905.88
2023-03-13T17:58:57.686Z,98912.53
2023-03-13T18:01:26.428Z,98907.78
2023-03-13T18:03:53.960Z,98908.31
2023-03-13T18:06:22.320Z,98909.66
2023-03-13T18:08:50.278Z,98907.38
2023-03-13T18:11:18.255Z,98901.47
2023-03-13T18:13:47.256Z,98901.81
2023-03-13T18:16:16.898Z,98903.81
2023-03-13T18:18:44.447Z,98901.34
2023-03-13T18:21:11.978Z,98908.66
2023-03-13T18:23:39.475Z,98905.50
2023-03-13T18:26:13.630Z,98905.88
2023-03-13T18:28:41.111Z,98909.22
2023-03-13T18:31:11.760Z,98903.09
2023-03-13T18:33:41.624Z,98900.66
2023-03-13T18:36:12.761Z,98901.81
2023-03-13T18:38:40.330Z,98896.06
2023-03-13T18:41:10.072Z,98906.00
2023-03-13T18:43:38.252Z,98902.06
2023-03-13T18:46:05.984Z,98903.25
2023-03-13T18:48:34.914Z,98885.06
2023-03-13T18:51:04.010Z,98888.06
2023-03-13T18:53:31.550Z,98888.25
2023-03-13T18:55:59.617Z,98869.25
2023-03-13T18:58:27.103Z,98874.72
2023-03-13T19:00:54.698Z,98879.38
2023-03-13T19:03:22.622Z,98874.59
2023-03-13T19:05:51.561Z,98862.56
2023-03-13T19:08:19.127Z,98858.47
2023-03-13T19:10:46.641Z,98857.97
2023-03-13T19:13:14.173Z,98854.69
2023-03-13T19:15:41.664Z,98852.38
2023-03-13T19:18:10.668Z,98863.97
2023-03-13T19:20:38.155Z,98868.00
2023-03-13T19:23:07.032Z,98863.03
2023-03-13T19:25:34.622Z,98860.94
2023-03-13T19:28:02.066Z,98864.72
2023-03-13T19:30:29.565Z,98852.88
2023-03-13T19:32:57.132Z,98847.28
2023-03-13T19:35:24.714Z,98846.81
2023-03-13T19:37:52.261Z,98841.03
2023-03-13T19:40:21.805Z,98849.53
2023-03-13T19:42:49.371Z,98850.66
2023-03-13T19:45:19.727Z,98854.69
2023-03-13T19:47:47.271Z,98846.09
2023-03-13T19:50:17.262Z,98841.16
2023-03-13T19:52:45.982Z,98837.03
2023-03-13T19:55:13.551Z,98845.16
2023-03-13T19:57:42.444Z,98841.00
2023-03-13T20:00:14.153Z,98849.13
2023-03-13T20:02:42.554Z,98845.66
2023-03-13T20:05:10.555Z,98845.84
2023-03-13T20:07:38.296Z,98843.38
2023-03-13T20:10:06.293Z,98840.88
2023-03-13T20:12:34.159Z,98847.16
2023-03-13T20:15:03.094Z,98841.88
2023-03-13T20:17:30.578Z,98841.06
2023-03-13T20:19:58.090Z,98836.97
2023-03-13T20:22:25.652Z,98836.13
2023-03-13T20:24:53.492Z,98836.31
2023-03-13T20:27:21.045Z,98839.28
2023-03-13T20:29:48.657Z,98832.53
2023-03-13T20:32:17.576Z,98835.34
2023-03-13T20:34:45.138Z,98831.22
2023-03-13T20:37:12.624Z,98825.25
2023-03-13T20:39:40.192Z,98821.16
2023-03-13T20:42:08.328Z,98822.16
2023-03-13T20:44:35.811Z,98822.47
2023-03-13T20:47:03.351Z,98830.75
2023-03-13T20:49:32.192Z,98848.75
2023-03-13T20:51:59.663Z,98843.66
2023-03-13T20:54:27.202Z,98850.94
2023-03-13T20:56:55.372Z,98859.03
2023-03-13T20:59:22.920Z,98852.09
2023-03-13T21:01:50.501Z,98839.03
2023-03-13T21:04:18.065Z,98822.38
2023-03-13T21:06:47.227Z,98807.34
2023-03-13T21:09:14.710Z,98805.72
2023-03-13T21:11:42.195Z,98802.44
2023-03-13T21:14:09.705Z,98819.28
2023-03-13T21:16:37.334Z,98816.97
2023-03-13T21:19:04.893Z,98822.41
2023-03-13T21:21:32.798Z,98826.03
2023-03-13T21:24:01.659Z,98814.66
2023-03-13T21:26:29.164Z,98827.03
2023-03-13T21:28:56.698Z,98827.22
2023-03-13T21:31:24.309Z,98817.66
2023-03-13T21:33:51.842Z,98808.91
2023-03-13T21:36:21.452Z,98811.56
2023-03-13T21:38:49.141Z,98815.84
2023-03-13T21:41:18.690Z,98799.19
2023-03-13T21:43:46.354Z,98802.63
2023-03-13T21:46:14.404Z,98801.47
2023-03-13T21:48:42.509Z,98804.09
2023-03-13T21:51:10.379Z,98804.09
2023-03-13T21:53:38.064Z,98809.38
2023-03-13T21:56:05.852Z,98812.03
2023-03-13T21:58:34.707Z,98804.47
2023-03-13T22:01:02.250Z,98807.09
2023-03-13T22:03:31.694Z,98801.13
2023-03-13T22:05:59.187Z,98799.50
2023-03-13T22:08:26.636Z,98799.84
2023-03-13T22:10:55.075Z,98790.47
2023-03-13T22:13:22.761Z,98787.16
2023-03-13T22:15:52.725Z,98764.38
2023-03-13T22:18:20.296Z,98743.63
2023-03-13T22:20:47.717Z,98724.50
2023-03-13T22:23:15.178Z,98728.94
2023-03-13T22:25:43.268Z,98750.75
2023-03-13T22:28:10.835Z,98748.28
2023-03-13T22:30:38.689Z,98743.16
2023-03-13T22:33:07.700Z,98738.88
2023-03-13T22:35:35.433Z,98752.06
2023-03-13T22:38:02.986Z,98748.78
2023-03-13T22:40:30.469Z,98750.78
2023-03-13T22:42:58.198Z,98748.16
2023-03-13T22:45:25.724Z,98740.38
2023-03-13T22:47:53.295Z,98730.66
2023-03-13T22:50:25.615Z,98733.47
2023-03-13T22:52:53.402Z,98732.63
2023-03-13T22:55:20.906Z,98713.16
2023-03-13T22:57:48.410Z,98718.44
2023-03-13T23:00:16.389Z,98708.88
2023-03-13T23:02:43.824Z,98703.44
2023-03-13T23:05:11.460Z,98690.41
2023-03-13T23:07:40.877Z,98703.63
2023-03-13T23:10:08.904Z,98699.16
2023-03-13T23:12:36.379Z,98700.16
2023-03-13T23:15:04.086Z,98702.78
2023-03-13T23:17:31.907Z,98716.81
2023-03-13T23:20:01.051Z,98732.63
2023-03-13T23:22:32.759Z,98732.63
2023-03-13T23:25:01.951Z,98717.63
2023-03-13T23:27:29.514Z,98713.34
2023-03-13T23:29:57.056Z,98711.53
2023-03-13T23:32:25.118Z,98704.44
2023-03-13T23:34:52.693Z,98705.44
2023-03-13T23:37:20.190Z,98721.44
2023-03-13T23:39:47.688Z,98721.44
2023-03-13T23:42:16.514Z,98711.88
2023-03-13T23:44:43.944Z,98712.72
2023-03-13T23:47:11.435Z,98697.69
2023-03-13T23:49:40.779Z,98688.78
2023-03-13T23:52:08.940Z,98682.03
2023-03-13T23:54:36.613Z,98681.88
2023-03-13T23:57:04.071Z,98677.59
2023-03-13T23:59:32.894Z,98684.69
